Terminal Aerodrome Forecast
Issued by NWS Blacksburg, VA

Current Version | Previous Version | Graphics & Text | Print | Product List | Glossary On
Versions: 1 2 3 4 5 6 7 8 9 10 11 12 13 14 15 16 17 18
000
FTUS41 KRNK 191120
TAFBLF
TAF
KBLF 191120Z 1912/2012 00000KT P6SM BKN250
     FM200200 16004KT P6SM VCSH OVC070
     FM200800 17007KT 6SM -RA BR OVC060
     FM200900 17007KT 6SM -RA OVC015=

USA.gov is the U.S. government's official web portal to all federal, state and local government web resources and services.